sensor_id;sensor_type;location;lat;lon;timestamp;temperature;humidity
4097;DHT22;2062;50.694;7.246;2023-08-31T00:00:41;14.40;61.60
4097;DHT22;2062;50.694;7.246;2023-08-31T00:03:08;14.20;61.60
4097;DHT22;2062;50.694;7.246;2023-08-31T00:05:37;14.20;61.60
4097;DHT22;2062;50.694;7.246;2023-08-31T00:08:06;14.30;61.90
4097;DHT22;2062;50.694;7.246;2023-08-31T00:10:33;14.20;61.70
4097;DHT22;2062;50.694;7.246;2023-08-31T00:13:00;14.20;61.80
4097;DHT22;2062;50.694;7.246;2023-08-31T00:15:27;14.20;61.80
4097;DHT22;2062;50.694;7.246;2023-08-31T00:17:56;14.30;61.90
4097;DHT22;2062;50.694;7.246;2023-08-31T00:20:23;14.20;61.90
4097;DHT22;2062;50.694;7.246;2023-08-31T00:22:50;14.30;61.90
4097;DHT22;2062;50.694;7.246;2023-08-31T00:25:17;14.20;61.80
4097;DHT22;2062;50.694;7.246;2023-08-31T00:27:44;14.20;61.80
4097;DHT22;2062;50.694;7.246;2023-08-31T00:30:13;14.40;61.90
4097;DHT22;2062;50.694;7.246;2023-08-31T00:32:41;14.20;61.60
4097;DHT22;2062;50.694;7.246;2023-08-31T00:35:09;14.30;61.70
4097;DHT22;2062;50.694;7.246;2023-08-31T00:37:36;14.30;61.70
4097;DHT22;2062;50.694;7.246;2023-08-31T00:40:04;14.20;61.60
4097;DHT22;2062;50.694;7.246;2023-08-31T00:42:32;14.20;61.60
4097;DHT22;2062;50.694;7.246;2023-08-31T00:44:59;14.20;61.70
4097;DHT22;2062;50.694;7.246;2023-08-31T00:47:26;14.10;61.60
4097;DHT22;2062;50.694;7.246;2023-08-31T00:49:53;14.10;61.60
4097;DHT22;2062;50.694;7.246;2023-08-31T00:52:21;14.20;61.50
4097;DHT22;2062;50.694;7.246;2023-08-31T00:54:49;14.10;61.50
4097;DHT22;2062;50.694;7.246;2023-08-31T00:57:18;14.10;61.50
4097;DHT22;2062;50.694;7.246;2023-08-31T00:59:45;14.10;61.40
4097;DHT22;2062;50.694;7.246;2023-08-31T01:02:17;14.10;61.50
4097;DHT22;2062;50.694;7.246;2023-08-31T01:04:51;14.10;61.70
4097;DHT22;2062;50.694;7.246;2023-08-31T01:07:29;14.10;61.50
4097;DHT22;2062;50.694;7.246;2023-08-31T01:10:04;14.10;61.60
4097;DHT22;2062;50.694;7.246;2023-08-31T01:12:40;14.00;61.50
4097;DHT22;2062;50.694;7.246;2023-08-31T01:15:11;14.00;61.50
4097;DHT22;2062;50.694;7.246;2023-08-31T01:17:41;14.10;61.70
4097;DHT22;2062;50.694;7.246;2023-08-31T01:20:09;14.10;61.60
4097;DHT22;2062;50.694;7.246;2023-08-31T01:22:43;14.10;61.60
4097;DHT22;2062;50.694;7.246;2023-08-31T01:25:11;14.10;61.70
4097;DHT22;2062;50.694;7.246;2023-08-31T01:27:39;14.10;61.80
4097;DHT22;2062;50.694;7.246;2023-08-31T01:30:06;14.00;61.60
4097;DHT22;2062;50.694;7.246;2023-08-31T01:32:34;14.00;61.80
4097;DHT22;2062;50.694;7.246;2023-08-31T01:35:01;14.00;61.80
4097;DHT22;2062;50.694;7.246;2023-08-31T01:37:35;14.00;61.60
4097;DHT22;2062;50.694;7.246;2023-08-31T01:40:08;14.00;61.70
4097;DHT22;2062;50.694;7.246;2023-08-31T01:42:38;14.00;61.70
4097;DHT22;2062;50.694;7.246;2023-08-31T01:45:06;14.10;61.80
4097;DHT22;2062;50.694;7.246;2023-08-31T01:47:34;14.00;61.70
4097;DHT22;2062;50.694;7.246;2023-08-31T01:50:01;14.00;61.80
4097;DHT22;2062;50.694;7.246;2023-08-31T01:52:28;14.00;61.70
4097;DHT22;2062;50.694;7.246;2023-08-31T01:54:56;14.00;61.80
4097;DHT22;2062;50.694;7.246;2023-08-31T01:57:23;14.00;61.80
4097;DHT22;2062;50.694;7.246;2023-08-31T01:59:51;14.00;61.80
4097;DHT22;2062;50.694;7.246;2023-08-31T02:02:18;14.00;61.70
4097;DHT22;2062;50.694;7.246;2023-08-31T02:04:45;14.00;61.60
4097;DHT22;2062;50.694;7.246;2023-08-31T02:07:12;14.00;62.40
4097;DHT22;2062;50.694;7.246;2023-08-31T02:09:39;14.00;61.60
4097;DHT22;2062;50.694;7.246;2023-08-31T02:12:06;14.00;61.50
4097;DHT22;2062;50.694;7.246;2023-08-31T02:14:35;14.00;61.60
4097;DHT22;2062;50.694;7.246;2023-08-31T02:17:03;14.00;61.60
4097;DHT22;2062;50.694;7.246;2023-08-31T02:19:29;14.00;61.60
4097;DHT22;2062;50.694;7.246;2023-08-31T02:21:56;14.00;61.60
4097;DHT22;2062;50.694;7.246;2023-08-31T02:24:23;14.00;61.50
4097;DHT22;2062;50.694;7.246;2023-08-31T02:26:52;13.90;61.40
4097;DHT22;2062;50.694;7.246;2023-08-31T02:29:19;13.90;62.20
4097;DHT22;2062;50.694;7.246;2023-08-31T02:31:46;13.90;61.30
4097;DHT22;2062;50.694;7.246;2023-08-31T02:34:14;13.90;61.30
4097;DHT22;2062;50.694;7.246;2023-08-31T02:36:41;13.90;61.50
4097;DHT22;2062;50.694;7.246;2023-08-31T02:39:07;13.90;61.40
4097;DHT22;2062;50.694;7.246;2023-08-31T02:41:34;13.90;61.50
4097;DHT22;2062;50.694;7.246;2023-08-31T02:44:01;13.90;61.50
4097;DHT22;2062;50.694;7.246;2023-08-31T02:46:28;13.80;61.40
4097;DHT22;2062;50.694;7.246;2023-08-31T02:48:55;13.80;61.50
4097;DHT22;2062;50.694;7.246;2023-08-31T02:51:23;13.70;61.60
4097;DHT22;2062;50.694;7.246;2023-08-31T02:53:50;13.70;61.60
4097;DHT22;2062;50.694;7.246;2023-08-31T02:56:18;13.70;61.70
4097;DHT22;2062;50.694;7.246;2023-08-31T02:58:45;13.70;61.80
4097;DHT22;2062;50.694;7.246;2023-08-31T03:01:13;13.70;61.70
4097;DHT22;2062;50.694;7.246;2023-08-31T03:03:40;13.60;61.80
4097;DHT22;2062;50.694;7.246;2023-08-31T03:06:08;13.60;61.90
4097;DHT22;2062;50.694;7.246;2023-08-31T03:08:37;13.50;62.00
4097;DHT22;2062;50.694;7.246;2023-08-31T03:11:04;13.60;61.90
4097;DHT22;2062;50.694;7.246;2023-08-31T03:13:32;13.60;62.00
4097;DHT22;2062;50.694;7.246;2023-08-31T03:15:59;13.50;62.10
4097;DHT22;2062;50.694;7.246;2023-08-31T03:18:26;13.50;62.10
4097;DHT22;2062;50.694;7.246;2023-08-31T03:20:54;13.40;62.00
4097;DHT22;2062;50.694;7.246;2023-08-31T03:23:21;13.40;62.20
4097;DHT22;2062;50.694;7.246;2023-08-31T03:25:49;13.40;62.10
4097;DHT22;2062;50.694;7.246;2023-08-31T03:28:16;13.30;63.00
4097;DHT22;2062;50.694;7.246;2023-08-31T03:30:43;13.30;62.30
4097;DHT22;2062;50.694;7.246;2023-08-31T03:33:10;13.30;62.30
4097;DHT22;2062;50.694;7.246;2023-08-31T03:35:37;13.30;62.40
4097;DHT22;2062;50.694;7.246;2023-08-31T03:38:04;13.30;62.50
4097;DHT22;2062;50.694;7.246;2023-08-31T03:40:31;13.30;62.50
4097;DHT22;2062;50.694;7.246;2023-08-31T03:42:59;13.30;62.60
4097;DHT22;2062;50.694;7.246;2023-08-31T03:45:27;13.40;62.60
4097;DHT22;2062;50.694;7.246;2023-08-31T03:47:54;13.20;63.40
4097;DHT22;2062;50.694;7.246;2023-08-31T03:50:20;13.20;62.50
4097;DHT22;2062;50.694;7.246;2023-08-31T03:52:47;13.20;62.40
4097;DHT22;2062;50.694;7.246;2023-08-31T03:55:14;13.20;62.40
4097;DHT22;2062;50.694;7.246;2023-08-31T03:57:41;13.20;62.60
4097;DHT22;2062;50.694;7.246;2023-08-31T04:00:10;13.10;62.60
4097;DHT22;2062;50.694;7.246;2023-08-31T04:02:38;13.10;62.70
4097;DHT22;2062;50.694;7.246;2023-08-31T04:05:05;13.10;62.80
4097;DHT22;2062;50.694;7.246;2023-08-31T04:07:34;13.10;62.80
4097;DHT22;2062;50.694;7.246;2023-08-31T04:10:01;13.10;62.90
4097;DHT22;2062;50.694;7.246;2023-08-31T04:12:29;13.10;63.10
4097;DHT22;2062;50.694;7.246;2023-08-31T04:14:56;13.10;63.20
4097;DHT22;2062;50.694;7.246;2023-08-31T04:17:24;13.10;63.20
4097;DHT22;2062;50.694;7.246;2023-08-31T04:19:51;13.10;63.20
4097;DHT22;2062;50.694;7.246;2023-08-31T04:22:18;13.10;63.20
4097;DHT22;2062;50.694;7.246;2023-08-31T04:24:45;13.10;63.10
4097;DHT22;2062;50.694;7.246;2023-08-31T04:27:12;13.10;63.30
4097;DHT22;2062;50.694;7.246;2023-08-31T04:29:39;13.10;63.40
4097;DHT22;2062;50.694;7.246;2023-08-31T04:32:06;13.20;63.20
4097;DHT22;2062;50.694;7.246;2023-08-31T04:34:34;13.10;63.40
4097;DHT22;2062;50.694;7.246;2023-08-31T04:37:01;13.20;63.30
4097;DHT22;2062;50.694;7.246;2023-08-31T04:39:28;13.30;63.50
4097;DHT22;2062;50.694;7.246;2023-08-31T04:41:54;13.20;63.30
4097;DHT22;2062;50.694;7.246;2023-08-31T04:44:21;13.20;63.30
4097;DHT22;2062;50.694;7.246;2023-08-31T04:46:48;13.20;63.30
4097;DHT22;2062;50.694;7.246;2023-08-31T04:49:15;13.20;63.40
4097;DHT22;2062;50.694;7.246;2023-08-31T04:51:44;13.20;63.40
4097;DHT22;2062;50.694;7.246;2023-08-31T04:54:11;13.30;63.50
4097;DHT22;2062;50.694;7.246;2023-08-31T04:56:38;13.40;63.40
4097;DHT22;2062;50.694;7.246;2023-08-31T04:59:05;13.40;63.40
4097;DHT22;2062;50.694;7.246;2023-08-31T05:01:31;13.30;63.40
4097;DHT22;2062;50.694;7.246;2023-08-31T05:03:58;13.30;63.40
4097;DHT22;2062;50.694;7.246;2023-08-31T05:06:25;13.30;63.40
4097;DHT22;2062;50.694;7.246;2023-08-31T05:08:53;13.40;63.50
4097;DHT22;2062;50.694;7.246;2023-08-31T05:11:20;13.30;63.40
4097;DHT22;2062;50.694;7.246;2023-08-31T05:13:47;13.40;63.30
4097;DHT22;2062;50.694;7.246;2023-08-31T05:16:14;13.30;63.20
4097;DHT22;2062;50.694;7.246;2023-08-31T05:18:41;13.30;63.20
4097;DHT22;2062;50.694;7.246;2023-08-31T05:21:08;13.30;63.20
4097;DHT22;2062;50.694;7.246;2023-08-31T05:23:35;13.40;63.10
4097;DHT22;2062;50.694;7.246;2023-08-31T05:26:03;13.40;63.10
4097;DHT22;2062;50.694;7.246;2023-08-31T05:28:30;13.30;63.00
4097;DHT22;2062;50.694;7.246;2023-08-31T05:30:57;13.30;63.00
4097;DHT22;2062;50.694;7.246;2023-08-31T05:33:24;13.40;63.00
4097;DHT22;2062;50.694;7.246;2023-08-31T05:35:54;13.30;63.10
4097;DHT22;2062;50.694;7.246;2023-08-31T05:38:21;13.40;63.00
4097;DHT22;2062;50.694;7.246;2023-08-31T05:40:48;13.30;63.00
4097;DHT22;2062;50.694;7.246;2023-08-31T05:43:17;13.20;63.00
4097;DHT22;2062;50.694;7.246;2023-08-31T05:45:44;13.20;62.90
4097;DHT22;2062;50.694;7.246;2023-08-31T05:48:12;13.30;63.00
4097;DHT22;2062;50.694;7.246;2023-08-31T05:50:39;13.20;62.90
4097;DHT22;2062;50.694;7.246;2023-08-31T05:53:08;13.20;62.90
4097;DHT22;2062;50.694;7.246;2023-08-31T05:55:36;13.20;63.00
4097;DHT22;2062;50.694;7.246;2023-08-31T05:58:03;13.20;63.00
4097;DHT22;2062;50.694;7.246;2023-08-31T06:00:31;13.10;63.00
4097;DHT22;2062;50.694;7.246;2023-08-31T06:02:58;13.20;63.00
4097;DHT22;2062;50.694;7.246;2023-08-31T06:05:25;13.20;63.20
4097;DHT22;2062;50.694;7.246;2023-08-31T06:07:53;13.20;63.30
4097;DHT22;2062;50.694;7.246;2023-08-31T06:10:19;13.20;63.10
4097;DHT22;2062;50.694;7.246;2023-08-31T06:12:48;13.20;63.30
4097;DHT22;2062;50.694;7.246;2023-08-31T06:15:15;13.20;63.40
4097;DHT22;2062;50.694;7.246;2023-08-31T06:17:44;13.20;63.50
4097;DHT22;2062;50.694;7.246;2023-08-31T06:20:11;13.20;63.50
4097;DHT22;2062;50.694;7.246;2023-08-31T06:22:38;13.30;63.80
4097;DHT22;2062;50.694;7.246;2023-08-31T06:25:05;13.30;63.80
4097;DHT22;2062;50.694;7.246;2023-08-31T06:27:33;13.30;64.00
4097;DHT22;2062;50.694;7.246;2023-08-31T06:30:01;13.30;64.00
4097;DHT22;2062;50.694;7.246;2023-08-31T06:32:29;13.40;63.90
4097;DHT22;2062;50.694;7.246;2023-08-31T06:34:57;13.50;64.10
4097;DHT22;2062;50.694;7.246;2023-08-31T06:37:24;13.60;64.00
4097;DHT22;2062;50.694;7.246;2023-08-31T06:39:50;13.70;64.00
4097;DHT22;2062;50.694;7.246;2023-08-31T06:42:17;13.90;64.00
4097;DHT22;2062;50.694;7.246;2023-08-31T06:44:45;14.00;63.90
4097;DHT22;2062;50.694;7.246;2023-08-31T06:47:12;14.20;64.20
4097;DHT22;2062;50.694;7.246;2023-08-31T06:49:42;14.40;64.20
4097;DHT22;2062;50.694;7.246;2023-08-31T06:52:10;14.60;64.30
4097;DHT22;2062;50.694;7.246;2023-08-31T06:54:37;14.80;64.30
4097;DHT22;2062;50.694;7.246;2023-08-31T06:57:04;15.00;64.20
4097;DHT22;2062;50.694;7.246;2023-08-31T06:59:31;15.30;64.00
4097;DHT22;2062;50.694;7.246;2023-08-31T07:01:57;15.50;64.00
4097;DHT22;2062;50.694;7.246;2023-08-31T07:04:26;15.70;63.90
4097;DHT22;2062;50.694;7.246;2023-08-31T07:06:52;15.90;63.50
4097;DHT22;2062;50.694;7.246;2023-08-31T07:09:20;16.10;63.40
4097;DHT22;2062;50.694;7.246;2023-08-31T07:11:47;16.30;63.30
4097;DHT22;2062;50.694;7.246;2023-08-31T07:14:14;16.60;63.10
4097;DHT22;2062;50.694;7.246;2023-08-31T07:16:41;16.80;62.50
4097;DHT22;2062;50.694;7.246;2023-08-31T07:19:08;17.00;62.90
4097;DHT22;2062;50.694;7.246;2023-08-31T07:21:35;17.30;62.10
4097;DHT22;2062;50.694;7.246;2023-08-31T07:24:02;17.50;61.30
4097;DHT22;2062;50.694;7.246;2023-08-31T07:26:31;17.70;61.30
4097;DHT22;2062;50.694;7.246;2023-08-31T07:29:00;17.90;60.70
4097;DHT22;2062;50.694;7.246;2023-08-31T07:31:27;18.10;59.90
4097;DHT22;2062;50.694;7.246;2023-08-31T07:33:54;18.30;59.60
4097;DHT22;2062;50.694;7.246;2023-08-31T07:36:20;18.50;58.80
4097;DHT22;2062;50.694;7.246;2023-08-31T07:38:47;18.70;58.20
4097;DHT22;2062;50.694;7.246;2023-08-31T07:41:14;18.90;58.30
4097;DHT22;2062;50.694;7.246;2023-08-31T07:43:42;19.00;58.10
4097;DHT22;2062;50.694;7.246;2023-08-31T07:46:09;19.20;58.30
4097;DHT22;2062;50.694;7.246;2023-08-31T07:48:35;19.40;58.20
4097;DHT22;2062;50.694;7.246;2023-08-31T07:51:02;19.60;57.70
4097;DHT22;2062;50.694;7.246;2023-08-31T07:53:29;19.80;57.10
4097;DHT22;2062;50.694;7.246;2023-08-31T07:55:56;20.00;56.20
4097;DHT22;2062;50.694;7.246;2023-08-31T07:58:23;20.10;56.10
4097;DHT22;2062;50.694;7.246;2023-08-31T08:00:53;20.30;56.10
4097;DHT22;2062;50.694;7.246;2023-08-31T08:03:21;20.50;55.70
4097;DHT22;2062;50.694;7.246;2023-08-31T08:05:48;20.60;53.60
4097;DHT22;2062;50.694;7.246;2023-08-31T08:08:15;20.70;54.60
4097;DHT22;2062;50.694;7.246;2023-08-31T08:10:42;20.90;54.50
4097;DHT22;2062;50.694;7.246;2023-08-31T08:13:09;21.00;53.80
4097;DHT22;2062;50.694;7.246;2023-08-31T08:15:37;21.20;53.90
4097;DHT22;2062;50.694;7.246;2023-08-31T08:18:05;21.30;53.30
4097;DHT22;2062;50.694;7.246;2023-08-31T08:20:32;21.40;52.70
4097;DHT22;2062;50.694;7.246;2023-08-31T08:22:59;21.50;52.70
4097;DHT22;2062;50.694;7.246;2023-08-31T08:25:26;21.60;52.90
4097;DHT22;2062;50.694;7.246;2023-08-31T08:27:52;21.70;52.40
4097;DHT22;2062;50.694;7.246;2023-08-31T08:30:19;21.80;52.80
4097;DHT22;2062;50.694;7.246;2023-08-31T08:32:46;21.90;52.30
4097;DHT22;2062;50.694;7.246;2023-08-31T08:35:14;21.90;52.50
4097;DHT22;2062;50.694;7.246;2023-08-31T08:37:41;21.90;50.90
4097;DHT22;2062;50.694;7.246;2023-08-31T08:40:10;22.00;49.60
4097;DHT22;2062;50.694;7.246;2023-08-31T08:42:40;22.00;49.30
4097;DHT22;2062;50.694;7.246;2023-08-31T08:45:09;22.10;50.50
4097;DHT22;2062;50.694;7.246;2023-08-31T08:47:41;22.20;49.30
4097;DHT22;2062;50.694;7.246;2023-08-31T08:50:09;22.40;49.70
4097;DHT22;2062;50.694;7.246;2023-08-31T08:52:38;22.50;48.70
4097;DHT22;2062;50.694;7.246;2023-08-31T08:55:06;22.60;49.70
4097;DHT22;2062;50.694;7.246;2023-08-31T08:57:33;22.80;49.10
4097;DHT22;2062;50.694;7.246;2023-08-31T09:00:01;22.90;47.40
4097;DHT22;2062;50.694;7.246;2023-08-31T09:02:28;22.90;46.00
4097;DHT22;2062;50.694;7.246;2023-08-31T09:04:55;22.90;45.10
4097;DHT22;2062;50.694;7.246;2023-08-31T09:07:22;22.90;44.10
4097;DHT22;2062;50.694;7.246;2023-08-31T09:09:52;23.00;43.60
4097;DHT22;2062;50.694;7.246;2023-08-31T09:12:21;23.00;44.40
4097;DHT22;2062;50.694;7.246;2023-08-31T09:14:58;23.00;43.90
4097;DHT22;2062;50.694;7.246;2023-08-31T09:17:26;23.00;43.60
4097;DHT22;2062;50.694;7.246;2023-08-31T09:19:59;23.00;43.10
4097;DHT22;2062;50.694;7.246;2023-08-31T09:22:29;23.10;43.30
4097;DHT22;2062;50.694;7.246;2023-08-31T09:24:57;23.10;42.90
4097;DHT22;2062;50.694;7.246;2023-08-31T09:27:23;23.10;43.10
4097;DHT22;2062;50.694;7.246;2023-08-31T09:29:50;23.20;42.80
4097;DHT22;2062;50.694;7.246;2023-08-31T09:32:20;23.20;42.80
4097;DHT22;2062;50.694;7.246;2023-08-31T09:34:47;23.30;43.90
4097;DHT22;2062;50.694;7.246;2023-08-31T09:37:15;23.30;44.50
4097;DHT22;2062;50.694;7.246;2023-08-31T09:39:42;23.40;44.30
4097;DHT22;2062;50.694;7.246;2023-08-31T09:42:10;23.50;43.80
4097;DHT22;2062;50.694;7.246;2023-08-31T09:44:40;23.50;43.30
4097;DHT22;2062;50.694;7.246;2023-08-31T09:47:09;23.60;42.50
4097;DHT22;2062;50.694;7.246;2023-08-31T09:49:37;23.50;42.40
4097;DHT22;2062;50.694;7.246;2023-08-31T09:52:05;23.50;42.20
4097;DHT22;2062;50.694;7.246;2023-08-31T09:54:35;23.50;41.40
4097;DHT22;2062;50.694;7.246;2023-08-31T09:57:02;23.50;42.00
4097;DHT22;2062;50.694;7.246;2023-08-31T09:59:31;23.50;42.40
4097;DHT22;2062;50.694;7.246;2023-08-31T10:02:00;23.40;41.60
4097;DHT22;2062;50.694;7.246;2023-08-31T10:04:29;23.40;41.60
4097;DHT22;2062;50.694;7.246;2023-08-31T10:06:58;23.30;40.60
4097;DHT22;2062;50.694;7.246;2023-08-31T10:09:26;23.30;41.20
4097;DHT22;2062;50.694;7.246;2023-08-31T10:11:54;23.20;40.10
4097;DHT22;2062;50.694;7.246;2023-08-31T10:14:22;23.10;40.30
4097;DHT22;2062;50.694;7.246;2023-08-31T10:16:50;23.00;39.90
4097;DHT22;2062;50.694;7.246;2023-08-31T10:19:18;22.90;40.60
4097;DHT22;2062;50.694;7.246;2023-08-31T10:21:45;22.90;41.30
4097;DHT22;2062;50.694;7.246;2023-08-31T10:24:12;22.80;41.90
4097;DHT22;2062;50.694;7.246;2023-08-31T10:26:39;22.90;42.80
4097;DHT22;2062;50.694;7.246;2023-08-31T10:29:06;22.90;42.00
4097;DHT22;2062;50.694;7.246;2023-08-31T10:31:33;22.90;41.30
4097;DHT22;2062;50.694;7.246;2023-08-31T10:34:03;22.90;41.10
4097;DHT22;2062;50.694;7.246;2023-08-31T10:36:37;23.00;40.90
4097;DHT22;2062;50.694;7.246;2023-08-31T10:39:06;22.90;40.60
4097;DHT22;2062;50.694;7.246;2023-08-31T10:41:37;22.90;40.70
4097;DHT22;2062;50.694;7.246;2023-08-31T10:44:17;22.90;41.30
4097;DHT22;2062;50.694;7.246;2023-08-31T10:46:45;22.90;42.80
4097;DHT22;2062;50.694;7.246;2023-08-31T10:49:17;22.90;42.60
4097;DHT22;2062;50.694;7.246;2023-08-31T10:51:45;23.00;42.60
4097;DHT22;2062;50.694;7.246;2023-08-31T10:54:19;23.10;43.00
4097;DHT22;2062;50.694;7.246;2023-08-31T10:57:02;23.10;41.80
4097;DHT22;2062;50.694;7.246;2023-08-31T10:59:47;23.10;41.30
4097;DHT22;2062;50.694;7.246;2023-08-31T11:02:29;23.00;40.50
4097;DHT22;2062;50.694;7.246;2023-08-31T11:05:01;23.00;40.00
4097;DHT22;2062;50.694;7.246;2023-08-31T11:07:30;22.90;40.20
4097;DHT22;2062;50.694;7.246;2023-08-31T11:10:21;22.80;40.20
4097;DHT22;2062;50.694;7.246;2023-08-31T11:12:50;22.70;39.50
4097;DHT22;2062;50.694;7.246;2023-08-31T11:15:20;22.60;40.40
4097;DHT22;2062;50.694;7.246;2023-08-31T11:17:50;22.60;40.50
4097;DHT22;2062;50.694;7.246;2023-08-31T11:20:19;22.50;40.80
4097;DHT22;2062;50.694;7.246;2023-08-31T11:22:48;22.40;40.70
4097;DHT22;2062;50.694;7.246;2023-08-31T11:25:16;22.20;40.20
4097;DHT22;2062;50.694;7.246;2023-08-31T11:27:53;22.20;40.30
4097;DHT22;2062;50.694;7.246;2023-08-31T11:30:20;22.10;40.00
4097;DHT22;2062;50.694;7.246;2023-08-31T11:32:47;21.90;40.00
4097;DHT22;2062;50.694;7.246;2023-08-31T11:35:15;21.80;40.20
4097;DHT22;2062;50.694;7.246;2023-08-31T11:37:44;21.70;40.40
4097;DHT22;2062;50.694;7.246;2023-08-31T11:40:12;21.50;40.70
4097;DHT22;2062;50.694;7.246;2023-08-31T11:42:40;21.50;40.90
4097;DHT22;2062;50.694;7.246;2023-08-31T11:45:08;21.40;41.40
4097;DHT22;2062;50.694;7.246;2023-08-31T11:47:36;21.30;41.50
4097;DHT22;2062;50.694;7.246;2023-08-31T11:50:06;21.30;42.20
4097;DHT22;2062;50.694;7.246;2023-08-31T11:52:34;21.20;42.50
4097;DHT22;2062;50.694;7.246;2023-08-31T11:55:02;21.30;42.80
4097;DHT22;2062;50.694;7.246;2023-08-31T11:57:29;21.30;42.70
4097;DHT22;2062;50.694;7.246;2023-08-31T11:59:56;21.40;42.40
4097;DHT22;2062;50.694;7.246;2023-08-31T12:02:23;21.40;42.10
4097;DHT22;2062;50.694;7.246;2023-08-31T12:04:50;21.40;42.20
4097;DHT22;2062;50.694;7.246;2023-08-31T12:07:18;21.40;42.20
4097;DHT22;2062;50.694;7.246;2023-08-31T12:09:45;21.50;42.30
4097;DHT22;2062;50.694;7.246;2023-08-31T12:12:14;21.50;42.20
4097;DHT22;2062;50.694;7.246;2023-08-31T12:14:43;21.50;42.30
4097;DHT22;2062;50.694;7.246;2023-08-31T12:17:10;21.50;42.10
4097;DHT22;2062;50.694;7.246;2023-08-31T12:19:37;21.50;41.90
4097;DHT22;2062;50.694;7.246;2023-08-31T12:22:05;21.40;42.10
4097;DHT22;2062;50.694;7.246;2023-08-31T12:24:37;21.40;41.90
4097;DHT22;2062;50.694;7.246;2023-08-31T12:27:05;21.40;41.70
4097;DHT22;2062;50.694;7.246;2023-08-31T12:29:34;21.30;41.80
4097;DHT22;2062;50.694;7.246;2023-08-31T12:32:01;21.30;41.70
4097;DHT22;2062;50.694;7.246;2023-08-31T12:34:28;21.30;42.20
4097;DHT22;2062;50.694;7.246;2023-08-31T12:36:56;21.20;42.60
4097;DHT22;2062;50.694;7.246;2023-08-31T12:39:25;21.10;42.50
4097;DHT22;2062;50.694;7.246;2023-08-31T12:41:52;21.10;43.60
4097;DHT22;2062;50.694;7.246;2023-08-31T12:44:19;21.10;43.80
4097;DHT22;2062;50.694;7.246;2023-08-31T12:46:47;21.00;43.90
4097;DHT22;2062;50.694;7.246;2023-08-31T12:49:14;20.90;44.30
4097;DHT22;2062;50.694;7.246;2023-08-31T12:51:41;20.90;44.40
4097;DHT22;2062;50.694;7.246;2023-08-31T12:54:07;20.80;44.00
4097;DHT22;2062;50.694;7.246;2023-08-31T12:56:34;20.80;44.60
4097;DHT22;2062;50.694;7.246;2023-08-31T12:59:03;20.80;46.00
4097;DHT22;2062;50.694;7.246;2023-08-31T13:01:31;20.80;46.30
4097;DHT22;2062;50.694;7.246;2023-08-31T13:04:00;20.80;45.90
4097;DHT22;2062;50.694;7.246;2023-08-31T13:06:28;20.90;45.60
4097;DHT22;2062;50.694;7.246;2023-08-31T13:08:55;20.90;46.40
4097;DHT22;2062;50.694;7.246;2023-08-31T13:11:21;21.00;46.30
4097;DHT22;2062;50.694;7.246;2023-08-31T13:13:50;21.10;46.70
4097;DHT22;2062;50.694;7.246;2023-08-31T13:16:17;21.20;46.40
4097;DHT22;2062;50.694;7.246;2023-08-31T13:18:44;21.30;46.70
4097;DHT22;2062;50.694;7.246;2023-08-31T13:21:12;21.50;46.50
4097;DHT22;2062;50.694;7.246;2023-08-31T13:23:39;21.50;46.30
4097;DHT22;2062;50.694;7.246;2023-08-31T13:26:08;21.60;46.20
4097;DHT22;2062;50.694;7.246;2023-08-31T13:28:35;21.60;45.30
4097;DHT22;2062;50.694;7.246;2023-08-31T13:31:02;21.70;44.70
4097;DHT22;2062;50.694;7.246;2023-08-31T13:33:28;21.60;44.70
4097;DHT22;2062;50.694;7.246;2023-08-31T13:35:56;21.60;44.80
4097;DHT22;2062;50.694;7.246;2023-08-31T13:38:25;21.50;45.10
4097;DHT22;2062;50.694;7.246;2023-08-31T13:40:54;21.50;45.90
4097;DHT22;2062;50.694;7.246;2023-08-31T13:43:22;21.50;45.30
4097;DHT22;2062;50.694;7.246;2023-08-31T13:45:49;21.50;45.50
4097;DHT22;2062;50.694;7.246;2023-08-31T13:48:16;21.50;46.00
4097;DHT22;2062;50.694;7.246;2023-08-31T13:50:42;21.50;45.60
4097;DHT22;2062;50.694;7.246;2023-08-31T13:53:09;21.50;46.40
4097;DHT22;2062;50.694;7.246;2023-08-31T13:55:37;21.60;46.50
4097;DHT22;2062;50.694;7.246;2023-08-31T13:58:05;21.60;46.80
4097;DHT22;2062;50.694;7.246;2023-08-31T14:00:33;21.60;46.80
4097;DHT22;2062;50.694;7.246;2023-08-31T14:03:00;21.60;47.00
4097;DHT22;2062;50.694;7.246;2023-08-31T14:05:28;21.70;47.50
4097;DHT22;2062;50.694;7.246;2023-08-31T14:07:55;21.60;47.10
4097;DHT22;2062;50.694;7.246;2023-08-31T14:10:23;21.60;47.00
4097;DHT22;2062;50.694;7.246;2023-08-31T14:12:51;21.60;47.00
4097;DHT22;2062;50.694;7.246;2023-08-31T14:15:19;21.60;46.90
4097;DHT22;2062;50.694;7.246;2023-08-31T14:17:45;21.60;46.70
4097;DHT22;2062;50.694;7.246;2023-08-31T14:20:12;21.60;46.70
4097;DHT22;2062;50.694;7.246;2023-08-31T14:22:39;21.50;46.90
4097;DHT22;2062;50.694;7.246;2023-08-31T14:25:09;21.50;46.90
4097;DHT22;2062;50.694;7.246;2023-08-31T14:27:36;21.50;47.20
4097;DHT22;2062;50.694;7.246;2023-08-31T14:30:06;21.50;46.90
4097;DHT22;2062;50.694;7.246;2023-08-31T14:32:33;21.40;47.20
4097;DHT22;2062;50.694;7.246;2023-08-31T14:35:00;21.40;47.40
4097;DHT22;2062;50.694;7.246;2023-08-31T14:37:27;21.30;47.20
4097;DHT22;2062;50.694;7.246;2023-08-31T14:39:53;21.30;47.20
4097;DHT22;2062;50.694;7.246;2023-08-31T14:42:20;21.10;47.30
4097;DHT22;2062;50.694;7.246;2023-08-31T14:44:47;21.10;48.00
4097;DHT22;2062;50.694;7.246;2023-08-31T14:47:15;21.10;48.50
4097;DHT22;2062;50.694;7.246;2023-08-31T14:49:42;21.00;48.90
4097;DHT22;2062;50.694;7.246;2023-08-31T14:52:09;20.90;49.10
4097;DHT22;2062;50.694;7.246;2023-08-31T14:54:36;20.80;49.40
4097;DHT22;2062;50.694;7.246;2023-08-31T14:57:03;20.70;49.90
4097;DHT22;2062;50.694;7.246;2023-08-31T14:59:30;20.70;50.10
4097;DHT22;2062;50.694;7.246;2023-08-31T15:01:57;20.60;49.90
4097;DHT22;2062;50.694;7.246;2023-08-31T15:04:28;20.60;50.20
4097;DHT22;2062;50.694;7.246;2023-08-31T15:06:55;20.40;50.10
4097;DHT22;2062;50.694;7.246;2023-08-31T15:09:22;20.40;50.20
4097;DHT22;2062;50.694;7.246;2023-08-31T15:11:49;20.30;50.50
4097;DHT22;2062;50.694;7.246;2023-08-31T15:14:16;20.20;50.50
4097;DHT22;2062;50.694;7.246;2023-08-31T15:16:43;20.20;50.50
4097;DHT22;2062;50.694;7.246;2023-08-31T15:19:10;20.10;50.60
4097;DHT22;2062;50.694;7.246;2023-08-31T15:21:38;20.10;50.40
4097;DHT22;2062;50.694;7.246;2023-08-31T15:24:05;20.00;50.90
4097;DHT22;2062;50.694;7.246;2023-08-31T15:26:32;20.00;51.20
4097;DHT22;2062;50.694;7.246;2023-08-31T15:28:58;19.90;51.30
4097;DHT22;2062;50.694;7.246;2023-08-31T15:31:25;19.90;51.40
4097;DHT22;2062;50.694;7.246;2023-08-31T15:33:52;19.90;51.30
4097;DHT22;2062;50.694;7.246;2023-08-31T15:36:19;19.90;51.90
4097;DHT22;2062;50.694;7.246;2023-08-31T15:38:48;19.90;52.30
4097;DHT22;2062;50.694;7.246;2023-08-31T15:41:15;19.80;52.60
4097;DHT22;2062;50.694;7.246;2023-08-31T15:43:42;19.90;53.00
4097;DHT22;2062;50.694;7.246;2023-08-31T15:46:09;19.80;53.20
4097;DHT22;2062;50.694;7.246;2023-08-31T15:48:36;19.90;53.20
4097;DHT22;2062;50.694;7.246;2023-08-31T15:51:03;19.90;53.50
4097;DHT22;2062;50.694;7.246;2023-08-31T15:53:30;19.90;53.40
4097;DHT22;2062;50.694;7.246;2023-08-31T15:55:59;19.90;53.40
4097;DHT22;2062;50.694;7.246;2023-08-31T15:58:25;19.90;53.60
4097;DHT22;2062;50.694;7.246;2023-08-31T16:00:55;19.90;53.70
4097;DHT22;2062;50.694;7.246;2023-08-31T16:03:27;19.90;53.70
4097;DHT22;2062;50.694;7.246;2023-08-31T16:05:56;19.90;53.80